Time;durP1;ratioP1;P1;durP2;ratioP2;P2;SDS_P1;SDS_P2;PMS_P1;PMS_P2;Temp;Humidity;BMP_temperature;BMP_pressure;BME280_temperature;BME280_humidity;BME280_pressure;Samples;Min_cycle;Max_cycle;Signal;HPM_P1;HPM_P2
2021/10/18 00:01:26;;;;;;;12.02;6.00;;;;;;;;;;5097083;28;20074;-84
2021/10/18 00:03:52;;;;;;;13.30;6.05;;;;;;;;;;5096921;28;20108;-85
2021/10/18 00:06:18;;;;;;;14.35;6.32;;;;;;;;;;5095461;28;20028;-84
2021/10/18 00:08:45;;;;;;;11.75;5.78;;;;;;;;;;5096792;28;20062;-83
2021/10/18 00:11:11;;;;;;;14.43;6.15;;;;;;;;;;5095458;28;20111;-84
2021/10/18 00:13:38;;;;;;;17.23;7.18;;;;;;;;;;5095433;28;20020;-84
2021/10/18 00:16:04;;;;;;;12.70;5.80;;;;;;;;;;5097217;28;20036;-84
2021/10/18 00:18:31;;;;;;;11.15;6.13;;;;;;;;;;5095294;28;20457;-84
2021/10/18 00:20:57;;;;;;;11.82;6.05;;;;;;;;;;5097085;28;20024;-85
2021/10/18 00:23:23;;;;;;;13.90;6.88;;;;;;;;;;5096568;28;20025;-84
2021/10/18 00:25:52;;;;;;;14.30;6.40;;;;;;;;;;5095110;28;20078;-85
2021/10/18 00:28:18;;;;;;;12.32;6.22;;;;;;;;;;5095142;28;20123;-85
2021/10/18 00:30:44;;;;;;;15.70;6.20;;;;;;;;;;5095062;28;20046;-85
2021/10/18 00:33:11;;;;;;;12.27;6.63;;;;;;;;;;5096876;28;20051;-84
2021/10/18 00:35:37;;;;;;;12.13;5.07;;;;;;;;;;5096861;28;20169;-85
2021/10/18 00:38:03;;;;;;;11.48;5.90;;;;;;;;;;5094942;28;20020;-84
2021/10/18 00:40:29;;;;;;;14.57;6.53;;;;;;;;;;5094931;28;20028;-84
2021/10/18 00:42:56;;;;;;;16.42;6.72;;;;;;;;;;5093947;28;20058;-85
2021/10/18 00:45:22;;;;;;;11.30;6.05;;;;;;;;;;5094732;28;20051;-84
2021/10/18 00:47:48;;;;;;;13.63;5.93;;;;;;;;;;5094823;28;20476;-85
2021/10/18 00:50:15;;;;;;;15.13;7.35;;;;;;;;;;5094733;28;20024;-84
2021/10/18 00:52:41;;;;;;;19.45;8.25;;;;;;;;;;5096006;28;20023;-84
2021/10/18 00:55:08;;;;;;;17.35;8.35;;;;;;;;;;5094608;28;20110;-84
2021/10/18 00:57:34;;;;;;;16.73;9.02;;;;;;;;;;5094601;28;20473;-84
2021/10/18 01:00:00;;;;;;;14.65;8.07;;;;;;;;;;5094407;28;20109;-84
2021/10/18 01:02:27;;;;;;;17.15;9.50;;;;;;;;;;5095670;28;20032;-83
2021/10/18 01:04:53;;;;;;;15.35;8.00;;;;;;;;;;5096207;28;20035;-84
2021/10/18 01:07:20;;;;;;;15.73;7.97;;;;;;;;;;5095641;28;20089;-84
2021/10/18 01:09:46;;;;;;;19.67;8.60;;;;;;;;;;5095689;28;20024;-84
2021/10/18 01:12:12;;;;;;;15.48;8.90;;;;;;;;;;5094310;28;20030;-84
2021/10/18 01:14:39;;;;;;;13.80;7.82;;;;;;;;;;5094238;28;20020;-83
2021/10/18 01:17:05;;;;;;;16.77;8.57;;;;;;;;;;5094253;28;20095;-84
2021/10/18 01:19:32;;;;;;;14.23;7.32;;;;;;;;;;5094161;28;20028;-83
2021/10/18 01:22:03;;;;;;;17.92;7.03;;;;;;;;;;5095390;28;20385;-84
2021/10/18 01:24:30;;;;;;;14.80;7.88;;;;;;;;;;5094101;28;20503;-84
2021/10/18 01:26:56;;;;;;;11.88;7.10;;;;;;;;;;5095764;28;20428;-84
2021/10/18 01:29:22;;;;;;;15.02;7.55;;;;;;;;;;5094008;28;20017;-84
2021/10/18 01:31:49;;;;;;;15.38;6.55;;;;;;;;;;5095139;28;20028;-84
2021/10/18 01:34:15;;;;;;;12.57;6.72;;;;;;;;;;5093844;28;20111;-83
2021/10/18 01:36:41;;;;;;;11.82;6.32;;;;;;;;;;5093806;28;20067;-85
2021/10/18 01:39:08;;;;;;;11.20;6.25;;;;;;;;;;5093751;28;20024;-84
2021/10/18 01:41:34;;;;;;;13.23;6.05;;;;;;;;;;5095571;28;20518;-84
2021/10/18 01:44:00;;;;;;;11.52;5.97;;;;;;;;;;5095489;28;20024;-84
2021/10/18 01:46:27;;;;;;;14.48;6.85;;;;;;;;;;5093526;28;20408;-84
2021/10/18 01:48:53;;;;;;;14.20;5.72;;;;;;;;;;5094844;28;20020;-84
2021/10/18 01:51:20;;;;;;;12.23;5.93;;;;;;;;;;5093527;28;20381;-84
2021/10/18 01:53:46;;;;;;;13.45;6.18;;;;;;;;;;5094809;28;20055;-84
2021/10/18 01:56:12;;;;;;;21.05;6.05;;;;;;;;;;5093450;28;20427;-84
2021/10/18 01:58:39;;;;;;;10.73;5.68;;;;;;;;;;5093162;28;20044;-81
2021/10/18 02:01:05;;;;;;;11.35;5.50;;;;;;;;;;5093340;28;20473;-84
2021/10/18 02:03:32;;;;;;;11.05;5.25;;;;;;;;;;5093383;28;20081;-84
2021/10/18 02:05:58;;;;;;;11.75;5.15;;;;;;;;;;5094490;28;20036;-84
2021/10/18 02:08:24;;;;;;;14.90;5.53;;;;;;;;;;5095024;28;20487;-84
2021/10/18 02:10:50;;;;;;;13.73;5.30;;;;;;;;;;5093197;28;20153;-83
2021/10/18 02:13:17;;;;;;;10.25;4.95;;;;;;;;;;5093134;28;20024;-84
2021/10/18 02:15:43;;;;;;;12.02;5.03;;;;;;;;;;5093147;28;20111;-84
2021/10/18 02:18:09;;;;;;;12.90;5.22;;;;;;;;;;5093089;28;20046;-84
2021/10/18 02:20:36;;;;;;;10.48;4.97;;;;;;;;;;5092994;28;20540;-84
2021/10/18 02:23:02;;;;;;;8.52;4.97;;;;;;;;;;5094784;28;20063;-84
2021/10/18 02:25:29;;;;;;;13.65;5.80;;;;;;;;;;5092864;28;20119;-84
2021/10/18 02:27:55;;;;;;;10.77;5.22;;;;;;;;;;5094267;28;20024;-84
2021/10/18 02:30:22;;;;;;;7.90;4.70;;;;;;;;;;5092836;28;20024;-84
2021/10/18 02:32:48;;;;;;;9.10;4.75;;;;;;;;;;5092798;28;20064;-84
2021/10/18 02:35:14;;;;;;;9.00;4.97;;;;;;;;;;5092792;28;20020;-83
2021/10/18 02:37:42;;;;;;;12.18;5.13;;;;;;;;;;5092737;28;20451;-84
2021/10/18 02:40:08;;;;;;;12.50;5.65;;;;;;;;;;5094007;28;20055;-84
2021/10/18 02:42:35;;;;;;;12.13;5.43;;;;;;;;;;5092651;28;20105;-84
2021/10/18 02:45:01;;;;;;;9.40;4.47;;;;;;;;;;5093760;28;20431;-84
2021/10/18 02:47:27;;;;;;;10.02;5.18;;;;;;;;;;5092554;28;20543;-85
2021/10/18 02:49:53;;;;;;;9.38;5.05;;;;;;;;;;5093806;28;20051;-84
2021/10/18 02:52:20;;;;;;;9.40;4.95;;;;;;;;;;5093789;28;20062;-84
2021/10/18 02:54:46;;;;;;;10.13;4.72;;;;;;;;;;5092506;28;20187;-84
2021/10/18 02:57:12;;;;;;;12.35;5.60;;;;;;;;;;5092391;28;20028;-84
2021/10/18 02:59:39;;;;;;;11.32;5.53;;;;;;;;;;5092286;28;20395;-84
2021/10/18 03:02:05;;;;;;;9.20;5.05;;;;;;;;;;5092356;28;20051;-84
2021/10/18 03:04:31;;;;;;;8.38;4.57;;;;;;;;;;5092003;28;20025;-84
2021/10/18 03:06:58;;;;;;;9.45;4.63;;;;;;;;;;5092179;28;20028;-84
2021/10/18 03:09:24;;;;;;;9.18;4.70;;;;;;;;;;5093527;28;20035;-84
2021/10/18 03:11:50;;;;;;;7.70;4.53;;;;;;;;;;5093554;28;20024;-84
2021/10/18 03:14:18;;;;;;;12.45;4.90;;;;;;;;;;5094072;28;20028;-84
2021/10/18 03:16:45;;;;;;;10.30;4.97;;;;;;;;;;5094071;28;20032;-84
2021/10/18 03:19:11;;;;;;;10.25;4.25;;;;;;;;;;5092175;28;20042;-84
2021/10/18 03:21:37;;;;;;;11.30;5.10;;;;;;;;;;5092121;28;20392;-84
2021/10/18 03:24:04;;;;;;;11.85;4.18;;;;;;;;;;5092196;28;20024;-84
2021/10/18 03:26:30;;;;;;;8.98;4.55;;;;;;;;;;5091984;28;20032;-84
2021/10/18 03:28:57;;;;;;;8.10;4.35;;;;;;;;;;5092150;28;20091;-84
2021/10/18 03:31:23;;;;;;;9.30;4.70;;;;;;;;;;5093921;28;20473;-84
2021/10/18 03:33:49;;;;;;;8.30;4.00;;;;;;;;;;5093310;28;20045;-84
2021/10/18 03:36:16;;;;;;;8.75;4.40;;;;;;;;;;5093856;28;20032;-85
2021/10/18 03:38:42;;;;;;;8.95;4.32;;;;;;;;;;5091990;28;20027;-84
2021/10/18 03:41:08;;;;;;;13.32;4.55;;;;;;;;;;5093818;28;20032;-84
2021/10/18 03:43:35;;;;;;;7.35;4.10;;;;;;;;;;5093857;28;20446;-84
2021/10/18 03:46:01;;;;;;;7.53;3.95;;;;;;;;;;5091860;28;20039;-84
2021/10/18 03:48:28;;;;;;;7.05;3.40;;;;;;;;;;5093217;28;20054;-84
2021/10/18 03:50:54;;;;;;;10.85;3.72;;;;;;;;;;5091951;28;20030;-84
2021/10/18 03:53:20;;;;;;;8.50;4.28;;;;;;;;;;5093713;28;20082;-84
2021/10/18 03:55:47;;;;;;;9.45;4.63;;;;;;;;;;5093727;28;20028;-84
2021/10/18 03:58:13;;;;;;;6.55;3.92;;;;;;;;;;5091735;28;20040;-84
2021/10/18 04:00:40;;;;;;;8.05;4.05;;;;;;;;;;5091839;28;20535;-84
2021/10/18 04:03:06;;;;;;;8.50;4.03;;;;;;;;;;5091756;28;20024;-84
2021/10/18 04:05:32;;;;;;;10.30;4.45;;;;;;;;;;5091718;28;20032;-84
2021/10/18 04:07:59;;;;;;;11.48;3.95;;;;;;;;;;5091772;28;20563;-83
2021/10/18 04:10:25;;;;;;;9.15;4.18;;;;;;;;;;5092972;28;20469;-84
2021/10/18 04:12:51;;;;;;;9.00;3.58;;;;;;;;;;5091727;28;20058;-84
2021/10/18 04:15:19;;;;;;;17.08;4.40;;;;;;;;;;5091652;28;20077;-84
2021/10/18 04:17:46;;;;;;;5.88;4.00;;;;;;;;;;5093383;28;20024;-84
2021/10/18 04:20:12;;;;;;;9.02;3.83;;;;;;;;;;5095334;28;20111;-84
2021/10/18 04:22:38;;;;;;;8.38;3.78;;;;;;;;;;5096562;28;20053;-84
2021/10/18 04:25:05;;;;;;;7.18;3.83;;;;;;;;;;5095239;28;20185;-84
2021/10/18 04:27:31;;;;;;;7.25;3.45;;;;;;;;;;5095163;28;20036;-84
2021/10/18 04:29:57;;;;;;;6.28;3.40;;;;;;;;;;5095178;28;20020;-84
2021/10/18 04:32:24;;;;;;;6.07;3.30;;;;;;;;;;5095125;28;20052;-84
2021/10/18 04:34:50;;;;;;;11.40;3.53;;;;;;;;;;5096313;28;20020;-84
2021/10/18 04:37:16;;;;;;;6.68;3.22;;;;;;;;;;5095052;28;20119;-84
2021/10/18 04:39:43;;;;;;;5.95;3.17;;;;;;;;;;5094971;28;20027;-84
2021/10/18 04:42:09;;;;;;;6.97;2.85;;;;;;;;;;5094914;28;20024;-84
2021/10/18 04:44:37;;;;;;;12.23;3.13;;;;;;;;;;5094980;28;20020;-84
2021/10/18 04:47:03;;;;;;;8.68;3.08;;;;;;;;;;5095935;28;20063;-84
2021/10/18 04:49:30;;;;;;;8.57;3.97;;;;;;;;;;5094720;28;20020;-84
2021/10/18 04:51:56;;;;;;;7.07;3.10;;;;;;;;;;5094728;28;20040;-84
2021/10/18 04:54:23;;;;;;;6.13;3.47;;;;;;;;;;5094636;28;20101;-84
2021/10/18 04:56:49;;;;;;;7.03;3.25;;;;;;;;;;5094694;28;20064;-84
2021/10/18 04:59:15;;;;;;;8.43;3.05;;;;;;;;;;5094364;28;20051;-84
2021/10/18 05:01:42;;;;;;;10.63;3.75;;;;;;;;;;5096352;28;20032;-84
2021/10/18 05:04:08;;;;;;;14.25;4.70;;;;;;;;;;5094489;28;20071;-85
2021/10/18 05:06:34;;;;;;;8.30;3.63;;;;;;;;;;5094433;28;20583;-84
2021/10/18 05:09:00;;;;;;;9.23;4.15;;;;;;;;;;5096231;28;20017;-84
2021/10/18 05:11:27;;;;;;;30.65;9.40;;;;;;;;;;5095634;28;20396;-84
2021/10/18 05:13:53;;;;;;;17.50;8.23;;;;;;;;;;5094369;28;20024;-84
2021/10/18 05:16:19;;;;;;;13.93;6.85;;;;;;;;;;5094211;28;20526;-84
2021/10/18 05:18:45;;;;;;;21.17;7.60;;;;;;;;;;5095418;28;20477;-83
2021/10/18 05:21:12;;;;;;;11.80;6.30;;;;;;;;;;5094499;28;20020;-83
2021/10/18 05:23:38;;;;;;;17.40;5.88;;;;;;;;;;5094707;28;20082;-81
2021/10/18 05:26:04;;;;;;;15.02;6.18;;;;;;;;;;5094412;28;20059;-82
2021/10/18 05:28:30;;;;;;;12.63;6.82;;;;;;;;;;5093581;28;20024;-80
2021/10/18 05:30:56;;;;;;;17.10;6.75;;;;;;;;;;5094225;28;20109;-80
2021/10/18 05:33:22;;;;;;;9.82;5.70;;;;;;;;;;5094713;28;20392;-81
2021/10/18 05:35:48;;;;;;;13.20;5.38;;;;;;;;;;5095125;28;20024;-82
2021/10/18 05:38:18;;;;;;;16.70;5.88;;;;;;;;;;5093779;28;20384;-82
2021/10/18 05:40:45;;;;;;;11.50;4.70;;;;;;;;;;5091094;28;20020;-81
2021/10/18 05:43:11;;;;;;;11.70;5.60;;;;;;;;;;5093493;28;20115;-82
2021/10/18 05:45:37;;;;;;;10.50;5.47;;;;;;;;;;5093487;28;20035;-82
2021/10/18 05:48:04;;;;;;;15.80;6.25;;;;;;;;;;5093413;28;20066;-81
2021/10/18 05:50:35;;;;;;;14.07;5.63;;;;;;;;;;5089122;28;20028;-86
2021/10/18 05:53:01;;;;;;;18.42;6.35;;;;;;;;;;5094675;28;20536;-86
2021/10/18 05:55:27;;;;;;;13.48;6.82;;;;;;;;;;5093474;28;20028;-84
2021/10/18 05:57:55;;;;;;;12.48;5.82;;;;;;;;;;5093322;28;20120;-85
2021/10/18 06:00:22;;;;;;;11.45;4.82;;;;;;;;;;5093556;28;20036;-84
2021/10/18 06:02:49;;;;;;;11.35;4.85;;;;;;;;;;5093385;28;20032;-84
2021/10/18 06:05:16;;;;;;;13.30;5.75;;;;;;;;;;5093277;28;20115;-86
2021/10/18 06:07:42;;;;;;;20.23;6.30;;;;;;;;;;5094582;28;20477;-84
2021/10/18 06:10:09;;;;;;;30.42;7.78;;;;;;;;;;5093393;28;20024;-85
2021/10/18 06:12:36;;;;;;;14.88;7.32;;;;;;;;;;5093561;28;20032;-86
2021/10/18 06:15:03;;;;;;;35.65;16.50;;;;;;;;;;5093187;28;20030;-84
2021/10/18 06:17:29;;;;;;;22.08;8.02;;;;;;;;;;5093107;28;20027;-84
2021/10/18 06:19:56;;;;;;;28.73;11.18;;;;;;;;;;5093081;28;20031;-84
2021/10/18 06:22:22;;;;;;;54.90;21.25;;;;;;;;;;5094299;28;20028;-86
2021/10/18 06:24:49;;;;;;;31.15;11.70;;;;;;;;;;5094286;28;20024;-86
2021/10/18 06:27:16;;;;;;;21.90;11.50;;;;;;;;;;5094692;28;20068;-86
2021/10/18 06:29:43;;;;;;;35.55;14.63;;;;;;;;;;5092856;28;20111;-85
2021/10/18 06:32:09;;;;;;;29.25;15.50;;;;;;;;;;5093054;28;20052;-85
2021/10/18 06:34:35;;;;;;;27.73;13.43;;;;;;;;;;5092922;28;20024;-86
2021/10/18 06:37:01;;;;;;;28.88;13.80;;;;;;;;;;5094119;28;20027;-87
2021/10/18 06:39:28;;;;;;;27.63;13.07;;;;;;;;;;5092347;28;20059;-86
2021/10/18 06:41:54;;;;;;;17.73;9.27;;;;;;;;;;5094493;28;20026;-86
2021/10/18 06:44:20;;;;;;;21.00;9.63;;;;;;;;;;5092720;28;20028;-86
2021/10/18 06:46:46;;;;;;;23.17;10.52;;;;;;;;;;5092574;28;20370;-85
2021/10/18 06:49:13;;;;;;;20.67;11.00;;;;;;;;;;5092644;28;20024;-87
2021/10/18 06:51:46;;;;;;;20.02;11.07;;;;;;;;;;5092682;28;20499;-86
2021/10/18 06:54:13;;;;;;;18.13;9.75;;;;;;;;;;5092527;28;20388;-87
2021/10/18 06:56:44;;;;;;;15.90;7.50;;;;;;;;;;5096799;28;20430;-87
2021/10/18 06:59:11;;;;;;;19.92;9.10;;;;;;;;;;5092849;28;20484;-86
2021/10/18 07:01:40;;;;;;;17.15;8.85;;;;;;;;;;5092351;28;20028;-88
2021/10/18 07:04:07;;;;;;;27.20;11.90;;;;;;;;;;5092475;28;20058;-88
2021/10/18 07:06:34;;;;;;;21.77;10.02;;;;;;;;;;5092352;28;20036;-86
2021/10/18 07:09:00;;;;;;;22.25;9.13;;;;;;;;;;5092339;28;20039;-88
2021/10/18 07:11:26;;;;;;;18.20;9.35;;;;;;;;;;5093479;28;20024;-87
2021/10/18 07:13:53;;;;;;;18.58;9.15;;;;;;;;;;5092430;28;20031;-88
2021/10/18 07:16:19;;;;;;;19.63;7.15;;;;;;;;;;5093530;28;20027;-86
2021/10/18 07:18:45;;;;;;;7.47;4.00;;;;;;;;;;5092371;28;20032;-87
2021/10/18 07:21:11;;;;;;;19.20;3.63;;;;;;;;;;5092241;28;20027;-88
2021/10/18 07:23:38;;;;;;;10.30;4.00;;;;;;;;;;5092192;28;20028;-86
2021/10/18 07:26:07;;;;;;;10.77;4.22;;;;;;;;;;5092086;28;20389;-86
2021/10/18 07:28:33;;;;;;;12.80;3.33;;;;;;;;;;5092124;28;20016;-85
2021/10/18 07:31:00;;;;;;;10.95;4.15;;;;;;;;;;5093392;28;20032;-85
2021/10/18 07:33:27;;;;;;;17.23;3.80;;;;;;;;;;5092083;28;20024;-85
2021/10/18 07:35:55;;;;;;;20.63;4.47;;;;;;;;;;5092040;28;20039;-85
2021/10/18 07:38:24;;;;;;;18.38;3.70;;;;;;;;;;5092122;28;20042;-85
2021/10/18 07:40:51;;;;;;;27.10;4.20;;;;;;;;;;5092180;28;20118;-85
2021/10/18 07:43:17;;;;;;;12.38;4.15;;;;;;;;;;5092164;28;20032;-86
2021/10/18 07:45:43;;;;;;;12.32;4.70;;;;;;;;;;5091921;28;20392;-84
2021/10/18 07:48:10;;;;;;;14.75;5.18;;;;;;;;;;5092006;28;20032;-83
2021/10/18 07:50:36;;;;;;;31.80;6.22;;;;;;;;;;5092056;28;20021;-86
2021/10/18 07:53:02;;;;;;;12.60;4.28;;;;;;;;;;5095912;28;20102;-85
2021/10/18 07:55:30;;;;;;;21.00;5.32;;;;;;;;;;5095901;28;20495;-86
2021/10/18 07:57:57;;;;;;;11.65;4.35;;;;;;;;;;5095335;28;20122;-87
2021/10/18 08:00:23;;;;;;;8.65;4.20;;;;;;;;;;5095778;28;20035;-85
2021/10/18 08:02:50;;;;;;;13.00;4.68;;;;;;;;;;5095652;28;20024;-85
2021/10/18 08:05:16;;;;;;;11.50;5.28;;;;;;;;;;5095588;28;20027;-85
2021/10/18 08:07:48;;;;;;;12.48;4.97;;;;;;;;;;5096814;28;20121;-86
2021/10/18 08:10:22;;;;;;;11.05;5.25;;;;;;;;;;5095593;28;20024;-85
2021/10/18 08:12:49;;;;;;;9.13;4.07;;;;;;;;;;5097478;28;20365;-85
2021/10/18 08:15:15;;;;;;;11.40;3.55;;;;;;;;;;5095431;28;20036;-86
2021/10/18 08:17:41;;;;;;;13.65;4.07;;;;;;;;;;5097149;28;20028;-85
2021/10/18 08:20:08;;;;;;;13.60;3.83;;;;;;;;;;5095234;28;20106;-87
2021/10/18 08:22:34;;;;;;;11.68;3.28;;;;;;;;;;5095366;28;20515;-86
2021/10/18 08:25:00;;;;;;;7.72;3.35;;;;;;;;;;5095112;28;20035;-86
2021/10/18 08:27:27;;;;;;;8.68;3.50;;;;;;;;;;5095197;28;20051;-85
2021/10/18 08:29:53;;;;;;;13.70;3.55;;;;;;;;;;5095208;28;20024;-86
2021/10/18 08:32:19;;;;;;;9.27;3.92;;;;;;;;;;5097147;28;20020;-85
2021/10/18 08:34:45;;;;;;;9.40;4.18;;;;;;;;;;5095046;28;20480;-86
2021/10/18 08:37:11;;;;;;;11.73;3.90;;;;;;;;;;5094955;28;20135;-86
2021/10/18 08:42:25;;;;;;;12.75;7.72;;;;;;;;;;5096349;28;20028;-85
2021/10/18 08:44:52;;;;;;;77.72;11.80;;;;;;;;;;5096784;28;20106;-86
2021/10/18 08:47:18;;;;;;;17.90;6.22;;;;;;;;;;5094868;28;20032;-84
2021/10/18 08:49:44;;;;;;;30.77;5.97;;;;;;;;;;5094890;28;20024;-85
2021/10/18 08:52:13;;;;;;;12.48;4.43;;;;;;;;;;5094862;28;20028;-86
2021/10/18 08:54:39;;;;;;;14.63;4.97;;;;;;;;;;5094708;28;20020;-86
2021/10/18 08:57:05;;;;;;;8.63;3.92;;;;;;;;;;5094643;28;20397;-85
2021/10/18 08:59:31;;;;;;;9.57;3.78;;;;;;;;;;5094379;28;20059;-87
2021/10/18 09:01:59;;;;;;;9.02;4.40;;;;;;;;;;5094571;28;20397;-86
2021/10/18 09:04:29;;;;;;;10.90;4.00;;;;;;;;;;5093793;28;20107;-85
2021/10/18 09:07:13;;;;;;;8.15;3.10;;;;;;;;;;5094459;28;20036;-86
2021/10/18 09:09:45;;;;;;;11.10;3.40;;;;;;;;;;5094514;28;20124;-85
2021/10/18 09:12:34;;;;;;;37.58;5.90;;;;;;;;;;5094462;28;20127;-85
2021/10/18 09:15:21;;;;;;;14.80;3.28;;;;;;;;;;5094472;28;20024;-86
2021/10/18 09:17:54;;;;;;;7.35;2.97;;;;;;;;;;5094245;28;20028;-86
2021/10/18 09:20:28;;;;;;;8.00;3.00;;;;;;;;;;5094985;28;20024;-85
2021/10/18 09:22:57;;;;;;;9.30;3.38;;;;;;;;;;5093569;28;20523;-86
2021/10/18 09:25:38;;;;;;;8.48;3.58;;;;;;;;;;5093856;28;20020;-86
2021/10/18 09:28:15;;;;;;;8.40;3.42;;;;;;;;;;5094192;28;20480;-87
2021/10/18 09:30:46;;;;;;;7.65;3.10;;;;;;;;;;5094038;28;20024;-87
2021/10/18 09:33:25;;;;;;;7.95;3.13;;;;;;;;;;5093969;28;20031;-86
2021/10/18 09:35:52;;;;;;;6.93;3.13;;;;;;;;;;5093993;28;20429;-87
2021/10/18 09:38:21;;;;;;;7.53;3.10;;;;;;;;;;5093925;28;20024;-86
2021/10/18 09:40:47;;;;;;;6.25;2.78;;;;;;;;;;5093836;28;20060;-89
2021/10/18 09:43:14;;;;;;;5.78;2.55;;;;;;;;;;5095188;28;20070;-87
2021/10/18 09:45:57;;;;;;;14.95;2.53;;;;;;;;;;5095557;28;20035;-87
2021/10/18 10:53:08;;;;;;;4.95;1.23;;;;;;;;;;5094158;28;20427;-87
2021/10/18 10:55:35;;;;;;;3.33;0.95;;;;;;;;;;5092675;28;20392;-86
2021/10/18 10:58:03;;;;;;;4.30;1.08;;;;;;;;;;5092073;28;20024;-87
2021/10/18 11:00:35;;;;;;;4.05;1.20;;;;;;;;;;5092524;28;20062;-86
2021/10/18 11:03:39;;;;;;;2.95;0.80;;;;;;;;;;5092416;28;20020;-86
2021/10/18 11:06:09;;;;;;;2.28;1.08;;;;;;;;;;5016013;28;20589;-86
2021/10/18 11:08:39;;;;;;;4.30;1.00;;;;;;;;;;5079270;28;20485;-86
2021/10/18 11:11:19;;;;;;;4.28;1.75;;;;;;;;;;5092483;28;20031;-88
2021/10/18 11:14:05;;;;;;;8.35;3.35;;;;;;;;;;5093647;28;20024;-87
2021/10/18 11:16:31;;;;;;;3.90;1.23;;;;;;;;;;5092359;28;20051;-87
2021/10/18 11:18:59;;;;;;;4.00;1.40;;;;;;;;;;5092297;28;20028;-88
2021/10/18 11:21:26;;;;;;;6.90;1.33;;;;;;;;;;5092263;28;20048;-86
2021/10/18 11:23:55;;;;;;;4.43;0.95;;;;;;;;;;5092229;28;20035;-87
2021/10/18 11:26:21;;;;;;;3.97;0.88;;;;;;;;;;5094718;28;20039;-85
2021/10/18 11:28:51;;;;;;;4.57;1.00;;;;;;;;;;5096372;28;20074;-85
2021/10/18 11:31:17;;;;;;;3.10;0.93;;;;;;;;;;5098123;28;20364;-83
2021/10/18 11:33:59;;;;;;;3.58;1.00;;;;;;;;;;5096225;28;20488;-83
2021/10/18 11:36:25;;;;;;;3.53;0.70;;;;;;;;;;5096222;28;20031;-84
2021/10/18 11:39:05;;;;;;;6.35;1.95;;;;;;;;;;5096206;28;20055;-84
2021/10/18 11:41:31;;;;;;;2.75;0.88;;;;;;;;;;5096194;28;20145;-84
2021/10/18 11:43:57;;;;;;;2.95;1.27;;;;;;;;;;5097883;28;20375;-85
2021/10/18 11:46:23;;;;;;;5.03;1.05;;;;;;;;;;5095993;28;20039;-84
2021/10/18 11:48:49;;;;;;;2.03;0.98;;;;;;;;;;5095949;28;20024;-84
2021/10/18 11:51:15;;;;;;;5.80;1.20;;;;;;;;;;5096015;28;20032;-83
2021/10/18 11:53:43;;;;;;;4.07;1.05;;;;;;;;;;5095972;28;20020;-84
2021/10/18 11:56:17;;;;;;;3.17;0.90;;;;;;;;;;5097085;28;20064;-82
2021/10/18 11:58:44;;;;;;;4.68;1.02;;;;;;;;;;5096768;28;20052;-83
2021/10/18 12:01:11;;;;;;;4.43;1.00;;;;;;;;;;5096960;28;20024;-83
2021/10/18 12:03:37;;;;;;;2.22;0.75;;;;;;;;;;5095680;28;20054;-84
2021/10/18 12:06:05;;;;;;;1.67;0.80;;;;;;;;;;5096809;28;20028;-84
2021/10/18 12:08:32;;;;;;;6.70;1.60;;;;;;;;;;5095676;28;20032;-84
2021/10/18 12:10:59;;;;;;;2.50;1.10;;;;;;;;;;5095578;28;20476;-84
2021/10/18 12:13:25;;;;;;;6.88;2.67;;;;;;;;;;5095494;28;20024;-87
2021/10/18 12:16:04;;;;;;;10.38;4.40;;;;;;;;;;5095431;28;20029;-87
2021/10/18 12:18:50;;;;;;;2.45;1.10;;;;;;;;;;5095479;28;20435;-85
2021/10/18 12:21:21;;;;;;;2.65;1.00;;;;;;;;;;5097280;28;20024;-86
2021/10/18 12:23:48;;;;;;;5.95;1.00;;;;;;;;;;5097192;28;20073;-87
2021/10/18 12:26:17;;;;;;;4.55;1.00;;;;;;;;;;5095247;28;20039;-86
2021/10/18 12:28:45;;;;;;;4.32;1.00;;;;;;;;;;5095279;28;20472;-86
2021/10/18 12:31:24;;;;;;;5.63;1.35;;;;;;;;;;5096483;28;20035;-85
2021/10/18 12:33:59;;;;;;;1.98;0.90;;;;;;;;;;5095166;28;20019;-86
2021/10/18 12:36:25;;;;;;;5.47;1.13;;;;;;;;;;5095178;28;20118;-85
2021/10/18 12:38:51;;;;;;;4.53;1.50;;;;;;;;;;5093905;28;20061;-87
2021/10/18 12:41:18;;;;;;;4.78;2.17;;;;;;;;;;5094996;28;20499;-85
2021/10/18 12:43:45;;;;;;;5.38;2.42;;;;;;;;;;5096539;28;20403;-84
2021/10/18 12:46:15;;;;;;;3.58;1.30;;;;;;;;;;5094954;28;20032;-84
2021/10/18 12:48:41;;;;;;;5.05;1.50;;;;;;;;;;5095247;28;20109;-85
2021/10/18 12:51:07;;;;;;;5.30;1.83;;;;;;;;;;5095640;28;20097;-86
2021/10/18 12:53:35;;;;;;;7.47;2.60;;;;;;;;;;5093856;28;20021;-85
2021/10/18 12:56:01;;;;;;;11.55;4.18;;;;;;;;;;5094774;28;20028;-86
2021/10/18 12:58:32;;;;;;;16.42;5.03;;;;;;;;;;5093698;28;20055;-86
2021/10/18 13:00:59;;;;;;;13.93;5.00;;;;;;;;;;5095655;28;20016;-85
2021/10/18 13:03:25;;;;;;;22.52;8.80;;;;;;;;;;5094662;28;20101;-85
2021/10/18 13:05:52;;;;;;;6.35;2.67;;;;;;;;;;5094507;28;20030;-87
2021/10/18 13:08:20;;;;;;;5.32;2.10;;;;;;;;;;5094657;28;20036;-86
2021/10/18 13:10:47;;;;;;;3.33;1.40;;;;;;;;;;5094439;28;20016;-84
2021/10/18 13:13:15;;;;;;;5.68;1.50;;;;;;;;;;5094403;28;20031;-86
2021/10/18 13:15:42;;;;;;;2.45;1.15;;;;;;;;;;5094293;28;20020;-86
2021/10/18 13:18:09;;;;;;;5.07;1.55;;;;;;;;;;5094349;28;20396;-86
2021/10/18 13:20:36;;;;;;;4.43;1.50;;;;;;;;;;5094309;28;20380;-85
2021/10/18 13:23:05;;;;;;;6.68;1.42;;;;;;;;;;5095535;28;20050;-85
2021/10/18 13:25:32;;;;;;;5.20;1.30;;;;;;;;;;5094083;28;20024;-85
2021/10/18 13:27:59;;;;;;;5.22;1.20;;;;;;;;;;5094146;28;20032;-86
2021/10/18 13:30:25;;;;;;;3.53;1.23;;;;;;;;;;5095311;28;20073;-85
2021/10/18 13:32:53;;;;;;;4.13;1.63;;;;;;;;;;5095854;28;20028;-86
2021/10/18 13:35:19;;;;;;;5.95;1.98;;;;;;;;;;5093966;28;20145;-87
2021/10/18 13:37:46;;;;;;;5.20;1.58;;;;;;;;;;5093959;28;20498;-85
2021/10/18 13:40:13;;;;;;;2.92;1.23;;;;;;;;;;5093974;28;20091;-85
2021/10/18 13:42:40;;;;;;;5.28;1.30;;;;;;;;;;5095104;28;20032;-83
2021/10/18 13:45:06;;;;;;;6.00;1.70;;;;;;;;;;5095132;28;20091;-85
2021/10/18 13:47:33;;;;;;;6.32;1.40;;;;;;;;;;5095798;28;20032;-84
2021/10/18 13:49:59;;;;;;;3.40;1.45;;;;;;;;;;5093445;28;20028;-85
2021/10/18 13:52:26;;;;;;;5.75;1.80;;;;;;;;;;5094976;28;20024;-84
2021/10/18 13:54:52;;;;;;;3.72;1.50;;;;;;;;;;5094847;28;20469;-86
2021/10/18 13:57:19;;;;;;;4.03;1.48;;;;;;;;;;5093635;28;20027;-84
2021/10/18 13:59:48;;;;;;;4.75;1.38;;;;;;;;;;5094688;28;20052;-85
2021/10/18 14:02:15;;;;;;;4.20;1.30;;;;;;;;;;5094742;28;20024;-84
2021/10/18 14:04:44;;;;;;;7.32;1.88;;;;;;;;;;5095323;28;20028;-85
2021/10/18 14:07:15;;;;;;;7.82;2.20;;;;;;;;;;5094886;28;20497;-84
2021/10/18 14:09:42;;;;;;;9.10;2.65;;;;;;;;;;5094572;28;20133;-85
2021/10/18 14:12:09;;;;;;;8.32;2.70;;;;;;;;;;5093230;28;20077;-82
2021/10/18 14:14:35;;;;;;;10.27;3.53;;;;;;;;;;5093511;28;20431;-86
2021/10/18 14:17:01;;;;;;;12.55;4.68;;;;;;;;;;5094520;28;20020;-85
2021/10/18 14:19:28;;;;;;;10.77;3.80;;;;;;;;;;5095569;28;20472;-85
2021/10/18 14:21:54;;;;;;;5.57;2.40;;;;;;;;;;5094924;28;20542;-84
2021/10/18 14:24:20;;;;;;;23.65;2.70;;;;;;;;;;5094685;28;20020;-83
2021/10/18 14:26:46;;;;;;;3.42;1.65;;;;;;;;;;5097220;28;20032;-85
2021/10/18 14:29:13;;;;;;;2.90;1.75;;;;;;;;;;5095000;28;20075;-85
2021/10/18 14:31:39;;;;;;;8.55;2.05;;;;;;;;;;5092941;28;20028;-84
2021/10/18 14:34:06;;;;;;;7.95;2.35;;;;;;;;;;5092888;28;20032;-85
2021/10/18 14:36:32;;;;;;;5.22;2.20;;;;;;;;;;5094586;28;20028;-82
2021/10/18 14:38:59;;;;;;;6.82;2.70;;;;;;;;;;5094107;28;20024;-84
2021/10/18 14:41:26;;;;;;;4.70;2.60;;;;;;;;;;5095175;28;20028;-85
2021/10/18 14:43:57;;;;;;;5.78;2.13;;;;;;;;;;5095427;28;20473;-85
2021/10/18 14:46:26;;;;;;;5.75;2.90;;;;;;;;;;5094099;28;20499;-85
2021/10/18 14:48:53;;;;;;;5.07;2.53;;;;;;;;;;5093623;28;20070;-85
2021/10/18 14:51:22;;;;;;;5.05;2.63;;;;;;;;;;5094595;28;20024;-84
2021/10/18 14:53:51;;;;;;;6.90;2.92;;;;;;;;;;5092577;28;20035;-84
2021/10/18 14:56:18;;;;;;;4.70;2.95;;;;;;;;;;5092615;28;20020;-85
2021/10/18 14:58:45;;;;;;;5.95;2.47;;;;;;;;;;5093479;28;20048;-85
2021/10/18 15:01:11;;;;;;;5.43;2.83;;;;;;;;;;5092327;28;20020;-83
2021/10/18 15:03:40;;;;;;;5.55;2.80;;;;;;;;;;5093939;28;20388;-86
2021/10/18 15:06:06;;;;;;;10.65;4.10;;;;;;;;;;5093602;28;20062;-85
2021/10/18 15:08:32;;;;;;;8.60;2.00;;;;;;;;;;5092415;28;20472;-85
2021/10/18 15:10:58;;;;;;;5.95;2.30;;;;;;;;;;5092427;28;20020;-83
2021/10/18 15:13:25;;;;;;;4.60;1.80;;;;;;;;;;5093079;28;20459;-83
2021/10/18 15:15:51;;;;;;;8.20;2.65;;;;;;;;;;5092140;28;20028;-84
2021/10/18 15:18:17;;;;;;;8.50;2.70;;;;;;;;;;5091693;28;20143;-83
2021/10/18 15:20:44;;;;;;;6.75;2.55;;;;;;;;;;5092220;28;20032;-85
2021/10/18 15:23:12;;;;;;;7.00;2.75;;;;;;;;;;5093455;28;20464;-84
2021/10/18 15:25:38;;;;;;;4.85;2.38;;;;;;;;;;5092080;28;20385;-85
2021/10/18 15:28:04;;;;;;;6.32;2.30;;;;;;;;;;5092150;28;20027;-84
2021/10/18 15:30:30;;;;;;;6.72;2.38;;;;;;;;;;5092121;28;20126;-85
2021/10/18 15:32:56;;;;;;;5.25;2.28;;;;;;;;;;5092044;28;20024;-84
2021/10/18 15:35:22;;;;;;;3.38;1.63;;;;;;;;;;5092011;28;20031;-84
2021/10/18 15:37:49;;;;;;;3.47;1.90;;;;;;;;;;5091977;28;20028;-84
2021/10/18 15:40:18;;;;;;;9.23;2.65;;;;;;;;;;5093432;28;20509;-83
2021/10/18 15:42:44;;;;;;;4.95;2.47;;;;;;;;;;5091955;28;20034;-84
2021/10/18 15:45:12;;;;;;;5.72;2.00;;;;;;;;;;5092014;28;20433;-85